createdAt,value
2022-12-31T00:01:09.597Z,88.33
2022-12-31T00:03:47.365Z,88.33
2022-12-31T00:06:23.793Z,88.24
2022-12-31T00:09:11.133Z,88.30
2022-12-31T00:11:43.166Z,88.31
2022-12-31T00:14:15.215Z,88.27
2022-12-31T00:16:46.117Z,88.10
2022-12-31T00:19:17.409Z,87.95
2022-12-31T00:21:45.936Z,87.76
2022-12-31T00:24:17.570Z,87.62
2022-12-31T00:26:48.869Z,87.49
2022-12-31T00:29:17.426Z,87.32
2022-12-31T00:31:46.055Z,87.12
2022-12-31T00:34:22.744Z,87.01
2022-12-31T00:36:55.691Z,86.93
2022-12-31T00:39:27.336Z,86.76
2022-12-31T00:41:56.182Z,86.76
2022-12-31T00:44:28.147Z,86.75
2022-12-31T00:46:57.634Z,86.82
2022-12-31T00:49:26.284Z,86.85
2022-12-31T00:52:04.346Z,86.90
2022-12-31T00:54:33.577Z,86.98
2022-12-31T00:57:02.231Z,87.08
2022-12-31T00:59:30.967Z,87.22
2022-12-31T01:02:00.021Z,87.30
2022-12-31T01:04:36.366Z,87.47
2022-12-31T01:07:05.259Z,87.59
2022-12-31T01:09:35.680Z,87.82
2022-12-31T01:12:05.369Z,87.96
2022-12-31T01:14:34.023Z,88.01
2022-12-31T01:17:02.978Z,88.14
2022-12-31T01:19:31.850Z,88.25
2022-12-31T01:22:00.840Z,88.39
2022-12-31T01:24:33.579Z,88.33
2022-12-31T01:27:02.770Z,88.29
2022-12-31T01:29:34.532Z,88.20
2022-12-31T01:32:03.213Z,88.20
2022-12-31T01:34:35.035Z,88.23
2022-12-31T01:37:03.701Z,88.01
2022-12-31T01:39:40.013Z,87.87
2022-12-31T01:42:11.102Z,87.69
2022-12-31T01:44:51.486Z,87.57
2022-12-31T01:47:27.767Z,87.46
2022-12-31T01:50:02.328Z,87.43
2022-12-31T01:52:42.260Z,87.36
2022-12-31T01:55:18.568Z,87.32
2022-12-31T01:57:49.994Z,87.22
2022-12-31T02:00:19.495Z,87.21
2022-12-31T02:02:48.532Z,87.22
2022-12-31T02:05:33.129Z,87.24
2022-12-31T02:08:03.366Z,87.14
2022-12-31T02:10:36.114Z,87.22
2022-12-31T02:13:05.154Z,87.09
2022-12-31T02:15:45.605Z,87.04
2022-12-31T02:18:26.696Z,86.98
2022-12-31T02:21:19.654Z,86.91
2022-12-31T02:24:21.525Z,86.92
2022-12-31T02:27:01.637Z,86.75
2022-12-31T02:29:59.568Z,86.65
2022-12-31T02:32:48.584Z,86.65
2022-12-31T02:35:41.301Z,86.53
2022-12-31T02:38:16.624Z,86.39
2022-12-31T02:40:45.891Z,86.35
2022-12-31T02:43:17.321Z,86.28
2022-12-31T02:45:54.391Z,86.27
2022-12-31T02:48:41.860Z,86.18
2022-12-31T02:51:36.478Z,86.14
2022-12-31T02:54:32.709Z,86.22
2022-12-31T02:57:09.511Z,86.22
2022-12-31T03:00:08.872Z,86.34
2022-12-31T03:02:48.797Z,86.35
2022-12-31T03:05:32.800Z,86.49
2022-12-31T03:08:04.655Z,86.46
2022-12-31T03:10:40.489Z,86.55
2022-12-31T03:13:09.402Z,86.53
2022-12-31T03:15:40.361Z,86.52
2022-12-31T03:18:14.935Z,86.50
2022-12-31T03:21:12.760Z,86.51
2022-12-31T03:23:49.611Z,86.50
2022-12-31T03:26:18.713Z,86.50
2022-12-31T03:28:47.891Z,86.41
2022-12-31T03:31:19.544Z,86.40
2022-12-31T03:33:58.454Z,86.36
2022-12-31T03:36:34.681Z,86.39
2022-12-31T03:39:18.591Z,86.32
2022-12-31T03:42:07.634Z,86.30
2022-12-31T03:44:38.884Z,86.26
2022-12-31T03:47:21.475Z,86.16
2022-12-31T03:49:52.965Z,86.12
2022-12-31T03:52:21.817Z,86.09
2022-12-31T03:54:53.501Z,86.09
2022-12-31T03:57:25.126Z,86.29
2022-12-31T03:59:54.018Z,86.19
2022-12-31T04:02:28.255Z,86.34
2022-12-31T04:05:00.902Z,86.36
2022-12-31T04:07:32.163Z,86.21
2022-12-31T04:10:21.571Z,86.44
2022-12-31T04:12:53.481Z,86.28
2022-12-31T04:15:22.687Z,86.22
2022-12-31T04:17:51.367Z,86.25
2022-12-31T04:20:29.500Z,86.13
2022-12-31T04:22:58.185Z,86.06
2022-12-31T04:25:29.540Z,85.99
2022-12-31T04:28:00.783Z,85.92
2022-12-31T04:30:42.981Z,85.93
2022-12-31T04:33:11.670Z,85.98
2022-12-31T04:35:40.627Z,85.89
2022-12-31T04:38:09.446Z,85.83
2022-12-31T04:41:18.750Z,85.86
2022-12-31T04:43:48.874Z,85.68
2022-12-31T04:46:19.820Z,85.63
2022-12-31T04:48:48.817Z,85.61
2022-12-31T04:51:17.945Z,85.44
2022-12-31T04:53:47.540Z,85.38
2022-12-31T04:56:17.208Z,85.24
2022-12-31T04:59:07.036Z,85.20
2022-12-31T05:01:36.692Z,85.22
2022-12-31T05:04:06.016Z,85.12
2022-12-31T05:06:34.946Z,85.20
2022-12-31T05:09:03.661Z,85.26
2022-12-31T05:11:32.632Z,85.38
2022-12-31T05:14:02.516Z,85.49
2022-12-31T05:16:31.346Z,85.62
2022-12-31T05:19:00.296Z,85.69
2022-12-31T05:21:28.944Z,85.80
2022-12-31T05:23:57.925Z,85.89
2022-12-31T05:26:26.792Z,86.01
2022-12-31T05:28:59.629Z,86.15
2022-12-31T05:31:30.863Z,86.27
2022-12-31T05:34:02.050Z,86.42
2022-12-31T05:36:32.914Z,86.58
2022-12-31T05:39:04.896Z,86.64
2022-12-31T05:41:36.051Z,86.69
2022-12-31T05:44:07.160Z,86.62
2022-12-31T05:46:38.129Z,86.71
2022-12-31T05:49:22.171Z,86.66
2022-12-31T05:51:51.895Z,86.63
2022-12-31T05:54:23.180Z,86.67
2022-12-31T05:56:52.242Z,86.53
2022-12-31T05:59:21.244Z,86.41
2022-12-31T06:01:50.478Z,86.35
2022-12-31T06:04:19.223Z,86.28
2022-12-31T06:06:51.378Z,86.31
2022-12-31T06:09:22.635Z,86.19
2022-12-31T06:11:51.585Z,86.08
2022-12-31T06:14:21.505Z,86.01
2022-12-31T06:16:53.318Z,85.94
2022-12-31T06:19:25.231Z,85.77
2022-12-31T06:22:03.399Z,85.65
2022-12-31T06:24:52.263Z,85.58
2022-12-31T06:27:24.044Z,85.50
2022-12-31T06:29:55.816Z,85.32
2022-12-31T06:32:27.137Z,85.28
2022-12-31T06:35:12.649Z,85.12
2022-12-31T06:37:44.251Z,85.05
2022-12-31T06:40:29.602Z,85.03
2022-12-31T06:43:01.731Z,85.04
2022-12-31T06:45:30.292Z,85.04
2022-12-31T06:47:59.185Z,85.00
2022-12-31T06:50:28.129Z,85.11
2022-12-31T06:52:59.817Z,85.20
2022-12-31T06:55:29.974Z,85.31
2022-12-31T06:58:00.016Z,85.36
2022-12-31T07:00:30.171Z,85.49
2022-12-31T07:03:17.731Z,85.83
2022-12-31T07:05:57.688Z,85.94
2022-12-31T07:08:45.147Z,86.14
2022-12-31T07:11:23.349Z,86.22
2022-12-31T07:14:18.310Z,86.25
2022-12-31T07:17:21.835Z,86.43
2022-12-31T07:20:05.128Z,86.55
2022-12-31T07:22:35.412Z,86.69
2022-12-31T07:25:18.987Z,86.63
2022-12-31T07:28:04.436Z,86.58
2022-12-31T07:30:44.635Z,86.44
2022-12-31T07:33:26.808Z,86.25
2022-12-31T07:36:09.094Z,86.17
2022-12-31T07:38:50.039Z,86.14
2022-12-31T07:41:29.770Z,86.04
2022-12-31T07:44:07.778Z,86.04
2022-12-31T07:46:45.651Z,86.05
2022-12-31T07:49:15.415Z,86.01
2022-12-31T07:51:54.488Z,86.05
2022-12-31T07:54:23.474Z,85.80
2022-12-31T07:56:52.616Z,85.75
2022-12-31T07:59:36.618Z,85.77
2022-12-31T08:02:13.867Z,85.73
2022-12-31T08:04:59.069Z,85.76
2022-12-31T08:07:36.503Z,85.71
2022-12-31T08:10:17.747Z,85.71
2022-12-31T08:12:52.334Z,85.73
2022-12-31T08:15:26.873Z,85.67
2022-12-31T08:18:01.245Z,85.66
2022-12-31T08:20:32.616Z,85.70
2022-12-31T08:23:17.420Z,85.71
2022-12-31T08:25:56.406Z,85.61
2022-12-31T08:28:34.623Z,85.67
2022-12-31T08:31:10.716Z,85.59
2022-12-31T08:34:08.218Z,85.51
2022-12-31T08:36:47.755Z,85.39
2022-12-31T08:39:41.166Z,85.42
2022-12-31T08:42:21.851Z,85.19
2022-12-31T08:44:59.190Z,84.86
2022-12-31T08:47:38.466Z,84.62
2022-12-31T08:50:14.571Z,84.35
2022-12-31T08:52:44.571Z,84.03
2022-12-31T08:55:18.119Z,83.81
2022-12-31T08:57:55.291Z,83.70
2022-12-31T09:00:26.150Z,83.71
2022-12-31T09:03:17.211Z,83.65
2022-12-31T09:06:02.848Z,83.48
2022-12-31T09:09:03.885Z,83.32
2022-12-31T09:11:43.006Z,83.42
2022-12-31T09:14:27.637Z,83.58
2022-12-31T09:17:04.475Z,83.73
2022-12-31T09:19:40.963Z,83.65
2022-12-31T09:22:17.687Z,83.67
2022-12-31T09:24:47.740Z,83.68
2022-12-31T09:27:28.004Z,83.77
2022-12-31T09:30:03.270Z,83.89
2022-12-31T09:32:51.901Z,84.03
2022-12-31T09:35:35.029Z,84.34
2022-12-31T09:38:11.817Z,84.58
2022-12-31T09:40:50.585Z,84.64
2022-12-31T09:44:01.402Z,84.70
2022-12-31T09:47:07.826Z,84.95
2022-12-31T09:50:06.793Z,85.13
2022-12-31T09:52:50.831Z,85.35
2022-12-31T09:55:35.455Z,85.35
2022-12-31T09:58:32.314Z,85.22
2022-12-31T10:01:10.634Z,85.36
2022-12-31T10:04:02.574Z,85.54
2022-12-31T10:06:39.381Z,85.68
2022-12-31T10:09:42.362Z,85.81
2022-12-31T10:12:37.264Z,85.96
2022-12-31T10:15:35.483Z,85.90
2022-12-31T10:18:11.684Z,85.18
2022-12-31T10:21:00.793Z,83.90
2022-12-31T10:23:48.340Z,82.72
2022-12-31T10:26:36.404Z,82.68
2022-12-31T10:29:18.663Z,81.72
2022-12-31T10:32:26.257Z,81.56
2022-12-31T10:35:14.903Z,80.85
2022-12-31T10:38:11.937Z,80.20
2022-12-31T10:41:14.182Z,80.06
2022-12-31T10:44:12.372Z,79.38
2022-12-31T10:47:22.063Z,79.22
2022-12-31T10:50:29.149Z,78.86
2022-12-31T10:53:30.110Z,78.60
2022-12-31T10:56:37.650Z,78.68
2022-12-31T10:59:44.615Z,78.85
2022-12-31T11:02:36.355Z,79.05
2022-12-31T11:05:41.324Z,79.07
2022-12-31T11:08:33.456Z,79.35
2022-12-31T11:11:19.885Z,79.20
2022-12-31T11:14:24.410Z,79.18
2022-12-31T11:17:16.907Z,79.16
2022-12-31T11:19:58.907Z,79.13
2022-12-31T11:22:43.450Z,79.31
2022-12-31T11:25:33.131Z,79.34
2022-12-31T11:28:34.910Z,79.29
2022-12-31T11:31:46.672Z,79.18
2022-12-31T11:34:51.626Z,79.22
2022-12-31T11:37:32.399Z,79.21
2022-12-31T11:40:20.924Z,79.25
2022-12-31T11:42:58.345Z,79.30
2022-12-31T11:45:50.251Z,79.10
2022-12-31T11:48:30.698Z,79.02
2022-12-31T11:51:13.755Z,79.15
2022-12-31T11:54:06.037Z,78.87
2022-12-31T11:56:37.481Z,78.77
2022-12-31T11:59:18.677Z,79.01
2022-12-31T12:01:55.114Z,79.39
2022-12-31T12:04:24.272Z,79.40
2022-12-31T12:06:53.206Z,79.57
2022-12-31T12:09:28.461Z,79.32
2022-12-31T12:12:03.926Z,79.55
2022-12-31T12:14:35.911Z,79.63
2022-12-31T12:17:06.970Z,79.75
2022-12-31T12:19:42.496Z,79.78
2022-12-31T12:22:21.311Z,79.85
2022-12-31T12:24:54.744Z,79.76
2022-12-31T12:27:27.560Z,79.82
2022-12-31T12:29:56.320Z,79.86
2022-12-31T12:32:28.016Z,79.86
2022-12-31T12:34:59.766Z,80.07
2022-12-31T12:37:32.498Z,79.96
2022-12-31T12:40:03.581Z,79.97
2022-12-31T12:42:32.578Z,79.94
2022-12-31T12:45:07.075Z,79.93
2022-12-31T12:47:36.219Z,80.03
2022-12-31T12:50:13.768Z,80.08
2022-12-31T12:53:02.502Z,79.85
2022-12-31T12:55:40.871Z,79.92
2022-12-31T12:58:21.278Z,80.02
2022-12-31T13:00:59.945Z,80.07
2022-12-31T13:04:33.694Z,80.26
2022-12-31T13:07:23.014Z,80.26
2022-12-31T13:10:22.025Z,80.35
2022-12-31T13:16:11.372Z,80.37
2022-12-31T13:18:54.944Z,80.31
2022-12-31T13:21:37.065Z,80.31
2022-12-31T13:24:18.235Z,80.29
2022-12-31T13:26:54.395Z,80.27
2022-12-31T13:29:28.141Z,80.37
2022-12-31T13:32:00.245Z,80.37
2022-12-31T13:34:30.241Z,80.48
2022-12-31T13:37:27.549Z,80.56
2022-12-31T13:40:17.951Z,80.59
2022-12-31T13:42:54.489Z,80.70
2022-12-31T13:45:28.383Z,80.77
2022-12-31T13:48:06.617Z,80.84
2022-12-31T13:50:49.293Z,80.88
2022-12-31T13:53:26.748Z,80.97
2022-12-31T13:56:02.996Z,81.18
2022-12-31T13:58:42.520Z,81.27
2022-12-31T14:01:33.625Z,81.40
2022-12-31T14:04:07.853Z,81.55
2022-12-31T14:06:45.568Z,81.66
2022-12-31T14:09:20.247Z,81.81
2022-12-31T14:12:09.560Z,81.92
2022-12-31T14:14:48.658Z,82.07
2022-12-31T14:17:46.056Z,82.10
2022-12-31T14:20:24.713Z,82.15
2022-12-31T14:23:05.795Z,82.09
2022-12-31T14:25:40.691Z,82.12
2022-12-31T14:28:19.418Z,82.11
2022-12-31T14:30:56.344Z,82.38
2022-12-31T14:33:49.389Z,82.46
2022-12-31T14:36:32.533Z,82.55
2022-12-31T14:39:29.411Z,82.60
2022-12-31T14:42:22.351Z,82.68
2022-12-31T14:45:23.320Z,82.79
2022-12-31T14:48:01.784Z,82.78
2022-12-31T14:50:51.299Z,82.60
2022-12-31T14:53:50.858Z,82.50
2022-12-31T14:56:42.236Z,82.67
2022-12-31T14:59:25.886Z,82.69
2022-12-31T15:02:27.947Z,82.71
2022-12-31T15:05:14.179Z,82.87
2022-12-31T15:08:24.576Z,82.93
2022-12-31T15:11:39.238Z,83.23
2022-12-31T15:14:41.438Z,83.31
2022-12-31T15:17:30.067Z,83.00
2022-12-31T15:20:46.601Z,83.04
2022-12-31T15:23:23.300Z,82.96
2022-12-31T15:25:56.952Z,82.87
2022-12-31T15:28:33.999Z,82.99
2022-12-31T15:31:09.972Z,83.04
2022-12-31T15:33:53.705Z,83.09
2022-12-31T15:36:27.784Z,83.27
2022-12-31T15:39:25.346Z,83.26
2022-12-31T15:42:54.998Z,83.34
2022-12-31T15:45:31.222Z,83.45
2022-12-31T15:48:05.507Z,83.51
2022-12-31T15:50:38.817Z,83.47
2022-12-31T15:53:07.879Z,83.96
2022-12-31T15:55:42.714Z,84.13
2022-12-31T15:58:15.447Z,84.43
2022-12-31T16:00:57.085Z,84.68
2022-12-31T16:03:29.005Z,84.64
2022-12-31T16:06:00.882Z,84.80
2022-12-31T16:08:31.093Z,84.50
2022-12-31T16:11:00.333Z,84.43
2022-12-31T16:13:30.454Z,84.27
2022-12-31T16:16:02.763Z,84.21
2022-12-31T16:18:39.154Z,84.31
2022-12-31T16:21:24.339Z,84.38
2022-12-31T16:23:54.408Z,84.38
2022-12-31T16:26:25.301Z,84.82
2022-12-31T16:28:59.356Z,84.36
2022-12-31T16:31:30.204Z,83.89
2022-12-31T16:34:07.605Z,83.77
2022-12-31T16:36:36.196Z,83.58
2022-12-31T16:39:24.315Z,83.35
2022-12-31T16:42:06.357Z,83.27
2022-12-31T16:44:35.264Z,83.07
2022-12-31T16:47:08.501Z,82.92
2022-12-31T16:49:39.702Z,82.68
2022-12-31T16:52:24.800Z,82.55
2022-12-31T16:54:54.744Z,82.54
2022-12-31T16:57:26.183Z,82.32
2022-12-31T16:59:59.145Z,82.41
2022-12-31T17:02:34.260Z,82.64
2022-12-31T17:05:06.537Z,82.71
2022-12-31T17:07:39.628Z,82.57
2022-12-31T17:10:19.878Z,82.67
2022-12-31T17:15:52.272Z,82.54
2022-12-31T17:18:24.050Z,82.43
2022-12-31T17:20:54.692Z,82.32
2022-12-31T17:23:28.678Z,81.92
2022-12-31T17:26:08.734Z,81.81
2022-12-31T17:28:45.385Z,81.73
2022-12-31T17:31:31.155Z,81.73
2022-12-31T17:34:30.978Z,81.75
2022-12-31T17:37:02.796Z,81.70
2022-12-31T17:39:44.208Z,81.84
2022-12-31T17:42:14.912Z,82.01
2022-12-31T17:44:44.264Z,82.02
2022-12-31T17:47:13.694Z,81.86
2022-12-31T17:49:45.533Z,81.81
2022-12-31T17:52:15.656Z,81.76
2022-12-31T17:54:44.407Z,81.39
2022-12-31T17:57:24.408Z,81.60
2022-12-31T17:59:53.498Z,81.31
2022-12-31T18:02:22.192Z,81.29
2022-12-31T18:04:52.401Z,81.38
2022-12-31T18:07:21.214Z,81.29
2022-12-31T18:09:50.040Z,81.31
2022-12-31T18:12:19.543Z,81.17
2022-12-31T18:14:48.203Z,81.16
2022-12-31T18:17:17.226Z,81.04
2022-12-31T18:20:06.163Z,80.92
2022-12-31T18:22:44.677Z,80.94
2022-12-31T18:25:17.521Z,80.79
2022-12-31T18:27:55.284Z,80.90
2022-12-31T18:30:25.133Z,80.97
2022-12-31T18:32:57.742Z,81.09
2022-12-31T18:36:06.608Z,81.26
2022-12-31T18:38:17.676Z,81.41
2022-12-31T18:40:53.417Z,81.63
2022-12-31T18:43:22.887Z,81.69
2022-12-31T18:45:53.182Z,81.96
2022-12-31T18:48:25.487Z,82.07
2022-12-31T18:50:55.666Z,82.36
2022-12-31T18:53:24.956Z,82.42
2022-12-31T18:55:57.813Z,82.36
2022-12-31T18:58:27.015Z,82.38
2022-12-31T19:00:55.896Z,82.41
2022-12-31T19:03:35.570Z,82.24
2022-12-31T19:06:08.808Z,82.37
2022-12-31T19:08:37.757Z,82.44
2022-12-31T19:11:16.181Z,82.34
2022-12-31T19:13:45.112Z,82.48
2022-12-31T19:16:22.052Z,82.30
2022-12-31T19:18:53.031Z,82.25
2022-12-31T19:21:32.726Z,81.98
2022-12-31T19:24:01.527Z,81.60
2022-12-31T19:26:30.334Z,81.36
2022-12-31T19:29:02.264Z,81.09
2022-12-31T19:31:51.433Z,81.06
2022-12-31T19:34:40.563Z,81.15
2022-12-31T19:37:14.513Z,81.29
2022-12-31T19:39:52.822Z,81.29
2022-12-31T19:42:21.875Z,81.31
2022-12-31T19:44:53.714Z,81.36
2022-12-31T19:47:33.814Z,81.36
2022-12-31T19:50:02.701Z,81.49
2022-12-31T19:52:34.151Z,81.59
2022-12-31T19:55:15.606Z,81.79
2022-12-31T19:57:44.816Z,82.14
2022-12-31T20:00:16.706Z,82.36
2022-12-31T20:02:57.286Z,82.70
2022-12-31T20:05:28.407Z,82.78
2022-12-31T20:07:57.327Z,83.04
2022-12-31T20:10:28.327Z,83.25
2022-12-31T20:12:56.906Z,83.30
2022-12-31T20:15:33.484Z,83.39
2022-12-31T20:18:05.185Z,83.46
2022-12-31T20:20:33.948Z,83.52
2022-12-31T20:23:02.678Z,83.59
2022-12-31T20:25:31.332Z,83.77
2022-12-31T20:28:02.718Z,83.78
2022-12-31T20:30:31.487Z,83.82
2022-12-31T20:33:00.387Z,83.90
2022-12-31T20:35:30.944Z,84.05
2022-12-31T20:38:01.818Z,83.89
2022-12-31T20:40:32.012Z,83.94
2022-12-31T20:43:01.076Z,84.01
2022-12-31T20:45:30.308Z,83.93
2022-12-31T20:48:03.255Z,84.08
2022-12-31T20:50:32.104Z,83.95
2022-12-31T20:53:01.611Z,83.86
2022-12-31T20:55:31.717Z,83.77
2022-12-31T20:58:03.563Z,83.76
2022-12-31T21:00:35.862Z,83.88
2022-12-31T21:03:18.656Z,83.74
2022-12-31T21:05:55.980Z,83.79
2022-12-31T21:08:29.657Z,83.94
2022-12-31T21:11:02.295Z,83.96
2022-12-31T21:13:56.965Z,83.95
2022-12-31T21:16:26.168Z,84.15
2022-12-31T21:18:55.825Z,84.04
2022-12-31T21:21:44.754Z,84.08
2022-12-31T21:24:17.484Z,84.12
2022-12-31T21:26:49.515Z,84.05
2022-12-31T21:29:34.491Z,84.11
2022-12-31T21:32:07.619Z,84.26
2022-12-31T21:34:36.395Z,84.25
2022-12-31T21:37:05.918Z,84.32
2022-12-31T21:39:44.360Z,84.27
2022-12-31T21:42:13.205Z,84.41
2022-12-31T21:44:41.947Z,84.43
2022-12-31T21:47:39.770Z,84.23
2022-12-31T21:50:15.046Z,84.12
2022-12-31T21:52:44.970Z,83.96
2022-12-31T21:55:32.969Z,83.86
2022-12-31T22:01:09.059Z,83.67
2022-12-31T22:03:38.111Z,83.54
2022-12-31T22:06:09.885Z,83.48
2022-12-31T22:08:42.793Z,83.41
2022-12-31T22:11:13.494Z,83.32
2022-12-31T22:13:43.645Z,83.23
2022-12-31T22:16:21.496Z,83.09
2022-12-31T22:18:50.612Z,83.07
2022-12-31T22:21:23.107Z,83.00
2022-12-31T22:23:53.647Z,82.95
2022-12-31T22:26:25.911Z,83.04
2022-12-31T22:28:58.396Z,83.08
2022-12-31T22:31:29.719Z,83.28
2022-12-31T22:33:59.248Z,83.27
2022-12-31T22:36:28.005Z,83.29
2022-12-31T22:38:57.785Z,83.33
2022-12-31T22:41:27.394Z,83.11
2022-12-31T22:44:04.154Z,83.12
2022-12-31T22:46:34.828Z,83.01
2022-12-31T22:49:04.842Z,82.75
2022-12-31T22:51:56.758Z,82.80
2022-12-31T22:54:24.705Z,82.75
2022-12-31T22:56:53.444Z,82.51
2022-12-31T22:59:23.238Z,82.41
2022-12-31T23:01:51.926Z,82.18
2022-12-31T23:04:24.035Z,82.05
2022-12-31T23:06:52.857Z,81.98
2022-12-31T23:09:42.941Z,81.80
2022-12-31T23:12:11.787Z,81.83
2022-12-31T23:14:58.621Z,81.54
2022-12-31T23:17:46.477Z,81.50
2022-12-31T23:20:40.191Z,81.30
2022-12-31T23:23:13.655Z,80.97
2022-12-31T23:25:44.559Z,80.96
2022-12-31T23:28:19.113Z,80.62
2022-12-31T23:30:51.643Z,80.50
2022-12-31T23:33:23.815Z,80.50
2022-12-31T23:36:03.390Z,80.32
2022-12-31T23:38:32.033Z,80.19
2022-12-31T23:41:00.842Z,79.99
2022-12-31T23:43:29.714Z,79.87
2022-12-31T23:45:58.285Z,79.77
2022-12-31T23:48:27.102Z,79.87
2022-12-31T23:50:55.688Z,79.67
2022-12-31T23:53:26.934Z,79.59
2022-12-31T23:55:55.850Z,79.48
2022-12-31T23:58:24.972Z,79.61
